Time;durP1;ratioP1;P1;durP2;ratioP2;P2;SDS_P1;SDS_P2;PMS_P1;PMS_P2;Temp;Humidity;BMP_temperature;BMP_pressure;BME280_temperature;BME280_humidity;BME280_pressure;Samples;Min_cycle;Max_cycle;Signal;HPM_P1;HPM_P2
2024/03/10 00:01:52;;;;;;;30.57;16.30;;;2.00;99.90;;;;;;4159095;28;20306;-58
2024/03/10 00:03:54;;;;;;;27.00;15.57;;;2.00;99.90;;;;;;4160574;28;20267;-56
2024/03/10 00:05:56;;;;;;;30.03;15.63;;;2.00;99.90;;;;;;4158799;28;20258;-56
2024/03/10 00:07:58;;;;;;;41.07;19.10;;;2.00;99.90;;;;;;4160271;28;20275;-55
2024/03/10 00:09:59;;;;;;;38.57;19.63;;;1.90;99.90;;;;;;4159560;28;20313;-60
2024/03/10 00:12:00;;;;;;;40.03;19.93;;;1.90;99.90;;;;;;4160505;28;20313;-57
2024/03/10 00:14:02;;;;;;;34.20;17.83;;;1.80;99.90;;;;;;4159632;28;20259;-59
2024/03/10 00:16:04;;;;;;;32.57;16.20;;;1.80;99.90;;;;;;4160418;28;20372;-59
2024/03/10 00:18:08;;;;;;;36.03;19.00;;;1.80;99.90;;;;;;4159537;28;20254;-58
2024/03/10 00:20:10;;;;;;;33.63;18.07;;;1.70;99.90;;;;;;4141517;28;20345;-58
2024/03/10 00:22:11;;;;;;;40.73;19.57;;;1.60;99.90;;;;;;4158709;28;20326;-55
2024/03/10 00:24:12;;;;;;;36.13;18.83;;;1.50;99.90;;;;;;4159962;28;20267;-51
2024/03/10 00:26:15;;;;;;;37.73;18.80;;;1.50;99.90;;;;;;4159844;28;20287;-56
2024/03/10 00:28:16;;;;;;;37.17;20.20;;;1.40;99.90;;;;;;4159227;28;20286;-56
2024/03/10 00:30:18;;;;;;;39.43;19.23;;;1.30;99.90;;;;;;4158994;28;20270;-56
2024/03/10 00:32:19;;;;;;;38.63;20.37;;;1.20;99.90;;;;;;4159299;28;20267;-59
2024/03/10 00:34:20;;;;;;;41.77;20.60;;;1.20;99.90;;;;;;4163983;28;20739;-58
2024/03/10 00:36:22;;;;;;;38.17;19.07;;;1.20;99.90;;;;;;4162727;28;20298;-54
2024/03/10 00:38:23;;;;;;;36.10;19.20;;;1.10;99.90;;;;;;4162972;28;20278;-56
2024/03/10 00:40:24;;;;;;;33.63;18.23;;;1.20;99.90;;;;;;4162704;28;20282;-51
2024/03/10 00:42:26;;;;;;;38.77;19.23;;;1.20;99.90;;;;;;4163236;28;20834;-51
2024/03/10 00:44:27;;;;;;;39.63;20.20;;;1.40;99.90;;;;;;4161843;28;20325;-54
2024/03/10 00:46:30;;;;;;;40.87;20.50;;;1.30;99.90;;;;;;4162540;28;20266;-59
2024/03/10 00:48:31;;;;;;;40.23;21.43;;;1.30;99.90;;;;;;4161976;28;20670;-59
2024/03/10 00:50:32;;;;;;;42.10;21.13;;;1.30;99.90;;;;;;4163158;28;20316;-56
2024/03/10 00:52:35;;;;;;;40.00;21.43;;;1.30;99.90;;;;;;4163178;28;20735;-55
2024/03/10 00:54:36;;;;;;;43.03;21.47;;;1.30;99.90;;;;;;4161174;28;20839;-57
2024/03/10 00:56:38;;;;;;;45.00;20.73;;;1.30;99.90;;;;;;4162133;28;20282;-53
2024/03/10 00:58:39;;;;;;;41.33;19.33;;;1.30;99.90;;;;;;4160523;28;20353;-59
2024/03/10 01:00:41;;;;;;;36.87;20.37;;;1.30;99.90;;;;;;4162613;28;20279;-57
2024/03/10 01:02:46;;;;;;;42.00;20.23;;;1.30;99.90;;;;;;4160996;28;20274;-56
2024/03/10 01:04:48;;;;;;;39.53;20.57;;;1.30;99.90;;;;;;4163272;28;20297;-59
2024/03/10 01:06:49;;;;;;;34.80;19.47;;;1.30;99.90;;;;;;4161411;28;20270;-53
2024/03/10 01:08:50;;;;;;;38.20;20.67;;;1.30;99.90;;;;;;4161991;28;20758;-53
2024/03/10 01:10:52;;;;;;;40.17;20.73;;;1.40;99.90;;;;;;4160654;28;20841;-53
2024/03/10 01:12:54;;;;;;;41.07;19.77;;;1.40;99.90;;;;;;4163777;28;20332;-56
2024/03/10 01:14:55;;;;;;;51.47;25.20;;;1.30;99.90;;;;;;4161524;28;20667;-51
2024/03/10 01:16:56;;;;;;;46.67;22.80;;;1.40;99.90;;;;;;4162547;28;20368;-54
2024/03/10 01:18:58;;;;;;;42.30;22.43;;;1.40;99.90;;;;;;4161898;28;20368;-54
2024/03/10 01:20:59;;;;;;;41.80;21.17;;;1.40;99.90;;;;;;4155505;28;20262;-57
2024/03/10 01:23:01;;;;;;;38.90;20.53;;;1.40;99.90;;;;;;4161801;28;20282;-58
2024/03/10 01:25:04;;;;;;;41.43;20.20;;;1.40;99.90;;;;;;4161502;28;20267;-56
2024/03/10 01:27:05;;;;;;;44.27;21.93;;;1.40;99.90;;;;;;4162315;28;20678;-54
2024/03/10 01:29:08;;;;;;;55.33;28.80;;;1.30;99.90;;;;;;4161024;28;20271;-54
2024/03/10 01:31:09;;;;;;;41.97;23.40;;;1.30;99.90;;;;;;4162272;28;20267;-54
2024/03/10 01:33:11;;;;;;;43.63;21.60;;;1.30;99.90;;;;;;4160945;28;20345;-58
2024/03/10 01:35:13;;;;;;;39.87;21.10;;;1.30;99.90;;;;;;4162198;28;20258;-57
2024/03/10 01:37:15;;;;;;;40.70;20.90;;;1.30;99.90;;;;;;4161009;28;20294;-49
2024/03/10 01:39:16;;;;;;;34.83;19.67;;;1.30;99.90;;;;;;4163077;28;20321;-55
2024/03/10 01:41:18;;;;;;;39.80;17.80;;;1.30;99.90;;;;;;4161128;28;20309;-55
2024/03/10 01:43:19;;;;;;;31.53;18.30;;;1.20;99.90;;;;;;4162119;28;20694;-56
2024/03/10 01:45:21;;;;;;;32.80;18.13;;;1.30;99.90;;;;;;4160407;28;20279;-54
2024/03/10 01:47:23;;;;;;;33.80;18.67;;;1.30;99.90;;;;;;4162279;28;20282;-60
2024/03/10 01:49:24;;;;;;;35.90;18.47;;;1.20;99.90;;;;;;4161507;28;20259;-54
2024/03/10 01:51:25;;;;;;;32.63;17.57;;;1.30;99.90;;;;;;4162081;28;20623;-55
2024/03/10 01:53:30;;;;;;;28.93;16.50;;;1.30;99.90;;;;;;4162084;28;20293;-55
2024/03/10 01:55:32;;;;;;;33.17;16.30;;;1.30;99.90;;;;;;4161212;28;20267;-56
2024/03/10 01:57:34;;;;;;;27.60;15.60;;;1.30;99.90;;;;;;4161983;28;20295;-56
2024/03/10 01:59:35;;;;;;;30.97;16.27;;;1.30;99.90;;;;;;4161190;28;20324;-56
2024/03/10 02:01:37;;;;;;;30.97;15.97;;;1.30;99.90;;;;;;4161877;28;20267;-56
2024/03/10 02:03:38;;;;;;;28.40;16.10;;;1.30;99.90;;;;;;4160630;28;20337;-54
2024/03/10 02:05:40;;;;;;;33.83;16.23;;;1.30;99.90;;;;;;4162466;28;20324;-58
2024/03/10 02:07:41;;;;;;;25.50;14.17;;;1.30;99.90;;;;;;4161001;28;20258;-55
2024/03/10 02:09:44;;;;;;;28.73;15.53;;;1.30;99.90;;;;;;4162144;28;20271;-50
2024/03/10 02:11:46;;;;;;;32.47;15.17;;;1.30;99.90;;;;;;4160966;28;20317;-54
2024/03/10 02:13:47;;;;;;;31.77;16.77;;;1.30;99.90;;;;;;4162167;28;20655;-57
2024/03/10 02:16:03;;;;;;;27.47;16.20;;;1.30;99.90;;;;;;4160581;28;20336;-56
2024/03/10 02:18:05;;;;;;;32.90;16.60;;;1.20;99.90;;;;;;4167841;28;20283;-59
2024/03/10 02:20:19;;;;;;;32.87;16.33;;;1.20;99.90;;;;;;4145073;28;20449;-53
2024/03/10 02:22:20;;;;;;;34.27;16.97;;;1.20;99.90;;;;;;4162528;28;20804;-56
2024/03/10 02:24:40;;;;;;;34.03;17.40;;;1.20;99.90;;;;;;4161208;28;20267;-57
2024/03/10 02:26:46;;;;;;;34.63;18.37;;;1.30;99.90;;;;;;4161205;28;20298;-56
2024/03/10 02:29:04;;;;;;;38.40;19.13;;;1.30;99.90;;;;;;4160154;28;20267;-57
2024/03/10 02:47:24;;;;;;;48.60;21.77;;;1.50;99.90;;;;;;4161173;28;20103;-57
2024/03/10 02:49:27;;;;;;;39.10;20.20;;;1.60;99.90;;;;;;4161008;28;20270;-57
2024/03/10 02:51:28;;;;;;;42.80;22.17;;;1.60;99.90;;;;;;4159957;28;20348;-57
2024/03/10 02:53:30;;;;;;;40.13;21.07;;;1.60;99.90;;;;;;4161768;28;20275;-56
2024/03/10 02:55:34;;;;;;;38.90;20.30;;;1.60;99.90;;;;;;4158676;28;20275;-59
2024/03/10 02:57:36;;;;;;;41.13;21.27;;;1.60;99.90;;;;;;4160917;28;20759;-54
2024/03/10 02:59:37;;;;;;;42.10;21.17;;;1.60;99.90;;;;;;4160693;28;20421;-54
2024/03/10 03:01:38;;;;;;;39.87;19.47;;;1.70;99.90;;;;;;4161190;28;20355;-57
2024/03/10 03:03:39;;;;;;;36.53;20.50;;;1.70;99.90;;;;;;4160046;28;20323;-52
2024/03/10 03:05:41;;;;;;;42.00;21.63;;;1.70;99.90;;;;;;4160695;28;20675;-54
2024/03/10 03:07:42;;;;;;;37.07;19.13;;;1.70;99.90;;;;;;4159619;28;20278;-55
2024/03/10 03:09:45;;;;;;;34.13;18.33;;;1.60;99.90;;;;;;4161447;28;20333;-53
2024/03/10 03:11:47;;;;;;;35.73;18.43;;;1.50;99.90;;;;;;4160221;28;20321;-55
2024/03/10 03:13:48;;;;;;;33.03;17.77;;;1.50;99.90;;;;;;4160826;28;20322;-56
2024/03/10 03:15:51;;;;;;;39.17;19.80;;;1.40;99.90;;;;;;4159522;28;20296;-52
2024/03/10 03:17:52;;;;;;;37.50;20.20;;;1.40;99.90;;;;;;4160258;28;20302;-59
2024/03/10 03:19:54;;;;;;;34.93;17.73;;;1.40;99.90;;;;;;4160831;28;20735;-54
2024/03/10 03:21:55;;;;;;;34.93;16.93;;;1.30;99.90;;;;;;4160663;28;20262;-52
2024/03/10 03:23:57;;;;;;;34.00;16.67;;;1.20;99.90;;;;;;4144320;28;20287;-59
2024/03/10 03:25:58;;;;;;;35.93;17.97;;;1.10;99.90;;;;;;4150365;28;20678;-57
2024/03/10 03:28:00;;;;;;;35.27;18.57;;;1.10;99.90;;;;;;4161087;28;20651;-57
2024/03/10 03:30:06;;;;;;;31.43;17.50;;;1.00;99.90;;;;;;4160152;28;20678;-55
2024/03/10 03:32:07;;;;;;;32.10;16.40;;;1.00;99.90;;;;;;4160859;28;20655;-59
2024/03/10 03:34:09;;;;;;;36.43;18.53;;;1.00;99.90;;;;;;4159956;28;20316;-53
2024/03/10 03:36:10;;;;;;;35.53;18.33;;;1.00;99.90;;;;;;4160152;28;20305;-55
2024/03/10 03:38:11;;;;;;;33.43;18.40;;;1.10;99.90;;;;;;4160331;28;20348;-59
2024/03/10 03:40:13;;;;;;;31.13;16.03;;;1.10;99.90;;;;;;4160509;28;20271;-53
2024/03/10 03:42:15;;;;;;;34.10;16.90;;;1.10;99.90;;;;;;4160086;28;20694;-61
2024/03/10 03:44:18;;;;;;;32.17;18.47;;;1.10;99.90;;;;;;4160286;28;20340;-59
2024/03/10 03:46:19;;;;;;;32.00;17.37;;;1.10;99.90;;;;;;4159300;28;20278;-58
2024/03/10 03:48:20;;;;;;;34.90;17.87;;;1.10;99.90;;;;;;4160092;28;20290;-58
2024/03/10 03:50:22;;;;;;;34.73;18.10;;;1.10;99.90;;;;;;4159773;28;20345;-56
2024/03/10 03:52:26;;;;;;;28.20;16.37;;;1.10;99.90;;;;;;4159970;28;20636;-60
2024/03/10 03:54:31;;;;;;;31.17;16.57;;;1.10;99.90;;;;;;4160376;28;20686;-59
2024/03/10 03:56:32;;;;;;;35.67;18.73;;;1.10;99.90;;;;;;4157871;28;20690;-57
2024/03/10 03:58:34;;;;;;;35.20;19.10;;;1.20;99.90;;;;;;4160383;28;20271;-58
2024/03/10 04:00:36;;;;;;;33.47;18.77;;;1.20;99.90;;;;;;4159209;28;20325;-60
2024/03/10 04:02:37;;;;;;;38.10;19.17;;;1.10;99.90;;;;;;4159788;28;20274;-59
2024/03/10 04:04:40;;;;;;;34.23;17.93;;;1.10;99.90;;;;;;4158652;28;20267;-60
2024/03/10 04:06:41;;;;;;;33.33;17.60;;;1.10;99.90;;;;;;4160259;28;20279;-59
2024/03/10 04:08:42;;;;;;;33.97;19.20;;;1.10;99.90;;;;;;4161329;28;20279;-57
2024/03/10 04:10:43;;;;;;;34.50;19.07;;;1.10;99.90;;;;;;4162905;28;20271;-60
2024/03/10 04:12:45;;;;;;;36.50;18.77;;;1.20;99.90;;;;;;4162660;28;20333;-60
2024/03/10 04:14:46;;;;;;;37.90;18.50;;;1.20;99.90;;;;;;4164001;28;20266;-58
2024/03/10 04:16:47;;;;;;;39.83;19.97;;;1.20;99.90;;;;;;4162606;28;20357;-58
2024/03/10 04:18:49;;;;;;;43.63;21.00;;;1.30;99.90;;;;;;4164384;28;20374;-55
2024/03/10 04:20:51;;;;;;;40.57;21.80;;;1.30;99.90;;;;;;4162458;28;20650;-55
2024/03/10 04:22:52;;;;;;;44.17;21.07;;;1.30;99.90;;;;;;4162872;28;20857;-59
2024/03/10 04:24:54;;;;;;;39.60;20.77;;;1.30;99.90;;;;;;4162398;28;20325;-58
2024/03/10 04:26:56;;;;;;;42.27;21.97;;;1.20;99.90;;;;;;4163279;28;20286;-58
2024/03/10 04:28:57;;;;;;;39.73;21.53;;;1.20;99.90;;;;;;4163354;28;20374;-58
2024/03/10 04:30:58;;;;;;;41.53;21.53;;;1.20;99.90;;;;;;4163354;28;20262;-58
2024/03/10 04:33:00;;;;;;;45.70;22.20;;;1.20;99.90;;;;;;4162905;28;20278;-59
2024/03/10 04:35:01;;;;;;;45.03;23.07;;;1.20;99.90;;;;;;4161990;28;20364;-57
2024/03/10 04:37:04;;;;;;;44.27;20.87;;;1.20;99.90;;;;;;4163876;28;20278;-55
2024/03/10 04:39:09;;;;;;;44.67;22.70;;;1.10;99.90;;;;;;4161756;28;20278;-56
2024/03/10 04:41:10;;;;;;;44.60;21.83;;;1.20;99.90;;;;;;4163173;28;20585;-59
2024/03/10 04:43:12;;;;;;;51.77;23.47;;;1.10;99.90;;;;;;4161944;28;20360;-57
2024/03/10 04:45:13;;;;;;;44.40;23.43;;;1.10;99.90;;;;;;4162963;28;20324;-57
2024/03/10 04:47:14;;;;;;;47.03;24.00;;;1.00;99.90;;;;;;4161596;28;20279;-56
2024/03/10 04:49:17;;;;;;;47.73;22.87;;;1.00;99.90;;;;;;4163228;28;20287;-54
2024/03/10 04:51:19;;;;;;;43.33;22.33;;;1.00;99.90;;;;;;4162145;28;20270;-52
2024/03/10 04:53:20;;;;;;;44.83;23.47;;;1.00;99.90;;;;;;4163375;28;20355;-58
2024/03/10 04:55:21;;;;;;;46.87;21.90;;;1.00;99.90;;;;;;4162204;28;20290;-58
2024/03/10 04:57:24;;;;;;;44.60;22.00;;;1.00;99.90;;;;;;4178115;28;20301;-52
2024/03/10 04:59:26;;;;;;;42.67;22.40;;;1.10;99.90;;;;;;4162858;28;20258;-51
2024/03/10 05:01:28;;;;;;;39.50;21.93;;;1.10;99.90;;;;;;4162295;28;20285;-54
2024/03/10 05:03:29;;;;;;;40.87;21.10;;;1.20;99.90;;;;;;4162960;28;20281;-57
2024/03/10 05:05:30;;;;;;;37.43;20.67;;;1.20;99.90;;;;;;4162425;28;20267;-55
2024/03/10 05:07:31;;;;;;;40.37;21.03;;;1.40;99.90;;;;;;4163271;28;20369;-52
2024/03/10 05:09:33;;;;;;;39.93;21.03;;;1.60;99.90;;;;;;4162333;28;20270;-56
2024/03/10 05:11:34;;;;;;;36.20;20.17;;;1.70;99.90;;;;;;4163100;28;20541;-55
2024/03/10 05:13:36;;;;;;;37.20;19.00;;;1.70;99.90;;;;;;4162307;28;20554;-55
2024/03/10 05:15:37;;;;;;;35.57;19.10;;;1.80;99.90;;;;;;4163313;28;20352;-53
2024/03/10 05:17:38;;;;;;;46.83;23.40;;;2.00;99.90;;;;;;4161634;28;20294;-53
2024/03/10 05:19:41;;;;;;;41.77;23.63;;;2.10;99.90;;;;;;4161473;28;20348;-56
2024/03/10 05:21:46;;;;;;;46.53;22.57;;;2.10;99.90;;;;;;4161506;28;20386;-51
2024/03/10 05:23:47;;;;;;;35.83;18.37;;;2.00;99.90;;;;;;4162526;28;20360;-56
2024/03/10 05:25:49;;;;;;;35.97;17.07;;;2.00;99.90;;;;;;4161935;28;20320;-56
2024/03/10 05:27:51;;;;;;;34.70;17.93;;;1.90;99.90;;;;;;4162483;28;20267;-55
2024/03/10 05:29:52;;;;;;;28.30;15.70;;;1.80;99.90;;;;;;4161884;28;20899;-59
2024/03/10 05:31:53;;;;;;;29.77;14.43;;;1.70;99.90;;;;;;4162028;28;20259;-59
2024/03/10 05:33:59;;;;;;;30.30;16.47;;;1.70;99.90;;;;;;4162199;28;20275;-59
2024/03/10 05:36:01;;;;;;;32.20;15.50;;;1.70;99.90;;;;;;4161210;28;20267;-57
2024/03/10 05:38:03;;;;;;;30.87;16.50;;;1.70;99.90;;;;;;4161715;28;20290;-59
2024/03/10 05:40:06;;;;;;;26.93;14.53;;;1.80;99.90;;;;;;4161036;28;20329;-59
2024/03/10 05:42:07;;;;;;;32.20;17.93;;;1.80;99.90;;;;;;4162843;28;20686;-59
2024/03/10 05:44:09;;;;;;;30.77;15.63;;;1.80;99.90;;;;;;4161647;28;20259;-56
2024/03/10 05:46:12;;;;;;;27.83;15.13;;;1.90;99.90;;;;;;4162974;28;20729;-55
2024/03/10 05:48:15;;;;;;;28.03;15.40;;;2.00;99.90;;;;;;4160846;28;20836;-58
2024/03/10 05:50:17;;;;;;;34.07;16.63;;;2.00;99.90;;;;;;4162456;28;20283;-58
2024/03/10 05:52:19;;;;;;;32.60;16.77;;;2.10;99.90;;;;;;4161686;28;20308;-59
2024/03/10 05:54:23;;;;;;;29.47;16.53;;;2.20;99.90;;;;;;4162033;28;20349;-60
2024/03/10 05:56:24;;;;;;;28.40;15.37;;;2.20;99.90;;;;;;4160715;28;20275;-59
2024/03/10 05:58:26;;;;;;;34.10;16.37;;;2.40;99.90;;;;;;4162635;28;20344;-59
2024/03/10 06:00:27;;;;;;;32.03;16.93;;;2.50;99.90;;;;;;4161231;28;20310;-53
2024/03/10 06:02:28;;;;;;;33.53;17.00;;;2.60;99.90;;;;;;4161695;28;20275;-59
2024/03/10 06:04:30;;;;;;;31.87;15.77;;;2.80;99.90;;;;;;4161541;28;20259;-59
2024/03/10 06:06:32;;;;;;;33.67;16.43;;;2.90;99.90;;;;;;4161885;28;20267;-60
2024/03/10 06:08:33;;;;;;;29.57;16.47;;;3.00;99.90;;;;;;4161934;28;20251;-55
2024/03/10 06:10:34;;;;;;;30.37;15.70;;;3.10;99.90;;;;;;4161249;28;20325;-56
2024/03/10 06:12:37;;;;;;;28.67;15.97;;;3.20;99.90;;;;;;4162779;28;20336;-55
2024/03/10 06:14:39;;;;;;;34.43;16.73;;;3.30;99.90;;;;;;4160701;28;20344;-55
2024/03/10 06:16:40;;;;;;;31.57;17.20;;;3.20;99.90;;;;;;4161750;28;20337;-61
2024/03/10 06:25:38;;;;;;;32.50;17.97;;;2.90;99.90;;;;;;4162464;28;20095;-55
2024/03/10 06:27:42;;;;;;;34.10;18.43;;;3.00;99.90;;;;;;4160696;28;20275;-57
2024/03/10 06:29:44;;;;;;;31.67;16.73;;;2.90;99.90;;;;;;4162098;28;20620;-59
2024/03/10 06:31:45;;;;;;;35.40;18.63;;;3.00;99.90;;;;;;4159828;28;20657;-57
2024/03/10 06:33:50;;;;;;;33.10;17.80;;;3.00;99.90;;;;;;4161439;28;20674;-57
2024/03/10 06:35:51;;;;;;;34.40;17.67;;;2.90;99.90;;;;;;4160581;28;20332;-57
2024/03/10 06:37:53;;;;;;;32.43;17.63;;;2.90;99.90;;;;;;4161549;28;21026;-60
2024/03/10 06:39:54;;;;;;;34.83;19.27;;;3.00;99.90;;;;;;4159968;28;20313;-56
2024/03/10 06:41:56;;;;;;;31.87;18.13;;;3.10;99.90;;;;;;4161023;28;20271;-58
2024/03/10 06:43:58;;;;;;;38.83;18.73;;;3.20;99.90;;;;;;4160575;28;20344;-58
2024/03/10 06:46:00;;;;;;;34.53;17.97;;;3.40;99.90;;;;;;4161025;28;20271;-54
2024/03/10 06:48:01;;;;;;;34.27;17.83;;;3.40;99.90;;;;;;4160637;28;20348;-58
2024/03/10 06:50:04;;;;;;;33.90;17.93;;;3.50;99.90;;;;;;4160357;28;20271;-61
2024/03/10 06:52:06;;;;;;;34.43;16.90;;;3.70;99.90;;;;;;4160483;28;20325;-61
2024/03/10 06:54:08;;;;;;;29.40;16.23;;;3.90;99.90;;;;;;4159801;28;20271;-59
2024/03/10 06:56:09;;;;;;;30.53;15.63;;;4.10;99.90;;;;;;4159404;28;20329;-59
2024/03/10 06:58:11;;;;;;;24.03;13.70;;;4.20;99.90;;;;;;4159392;28;20310;-60
2024/03/10 07:00:13;;;;;;;25.63;13.87;;;4.30;99.90;;;;;;4161025;28;20683;-56
2024/03/10 07:02:15;;;;;;;24.90;14.43;;;4.50;99.90;;;;;;4160237;28;20266;-58
2024/03/10 07:04:16;;;;;;;24.00;13.13;;;4.50;99.90;;;;;;4160318;28;20825;-51
2024/03/10 07:06:21;;;;;;;25.63;14.07;;;4.60;99.90;;;;;;4160247;28;20735;-53
2024/03/10 07:08:22;;;;;;;28.97;14.87;;;4.80;99.90;;;;;;4160425;28;20275;-58
2024/03/10 07:10:23;;;;;;;22.63;12.63;;;5.10;99.90;;;;;;4159579;28;20329;-56
2024/03/10 07:12:25;;;;;;;25.80;14.87;;;5.30;99.90;;;;;;4161231;28;20317;-58
2024/03/10 07:14:26;;;;;;;22.40;13.50;;;5.40;99.90;;;;;;4159673;28;20677;-56
2024/03/10 07:16:27;;;;;;;22.93;13.37;;;5.60;99.90;;;;;;4161450;28;20750;-55
2024/03/10 07:18:29;;;;;;;26.83;13.63;;;5.80;99.90;;;;;;4158402;28;20727;-59
2024/03/10 07:20:30;;;;;;;26.97;14.80;;;5.90;99.90;;;;;;4160918;28;20320;-58
2024/03/10 07:22:32;;;;;;;20.83;11.63;;;6.00;99.90;;;;;;4159153;28;20033;-57
2024/03/10 07:24:33;;;;;;;25.13;13.43;;;5.90;99.90;;;;;;4160484;28;20258;-58
2024/03/10 07:26:35;;;;;;;23.60;12.43;;;5.90;99.90;;;;;;4159020;28;20291;-55
2024/03/10 07:28:36;;;;;;;22.03;12.67;;;5.90;99.90;;;;;;4160705;28;20029;-57
2024/03/10 07:30:37;;;;;;;22.83;12.37;;;6.10;99.90;;;;;;4160136;28;20126;-57
2024/03/10 07:32:39;;;;;;;18.93;11.27;;;6.00;99.90;;;;;;4159732;28;20034;-56
2024/03/10 07:34:42;;;;;;;21.97;12.50;;;6.00;99.90;;;;;;4160808;28;20034;-52
2024/03/10 07:36:43;;;;;;;19.00;10.77;;;5.90;99.90;;;;;;4159212;28;20049;-57
2024/03/10 07:38:44;;;;;;;18.27;10.23;;;6.00;99.90;;;;;;4160391;28;20041;-58
2024/03/10 07:40:46;;;;;;;21.73;11.80;;;6.00;99.90;;;;;;4158671;28;20486;-54
2024/03/10 07:42:47;;;;;;;20.97;12.27;;;6.10;99.90;;;;;;4159397;28;20041;-56
2024/03/10 07:44:48;;;;;;;18.83;11.07;;;6.10;99.90;;;;;;4158898;28;20086;-57
2024/03/10 07:46:50;;;;;;;21.03;11.13;;;6.20;99.90;;;;;;4160950;28;20030;-57
2024/03/10 07:48:51;;;;;;;20.20;11.70;;;6.40;99.90;;;;;;4159707;28;20120;-56
2024/03/10 07:50:52;;;;;;;18.53;11.30;;;6.60;99.90;;;;;;4159451;28;20091;-58
2024/03/10 07:52:54;;;;;;;18.87;11.23;;;6.80;99.90;;;;;;4158528;28;20441;-58
2024/03/10 07:54:55;;;;;;;22.47;12.20;;;7.10;99.90;;;;;;4159611;28;20072;-59
2024/03/10 07:56:56;;;;;;;18.80;10.43;;;7.30;99.90;;;;;;4158331;28;20115;-58
2024/03/10 07:58:57;;;;;;;18.17;10.80;;;7.50;99.90;;;;;;4158767;28;20107;-57
2024/03/10 08:00:59;;;;;;;20.47;10.73;;;7.50;99.90;;;;;;4159933;28;20092;-56
2024/03/10 08:03:00;;;;;;;18.93;11.67;;;7.60;99.90;;;;;;4159138;28;21119;-59
2024/03/10 08:05:01;;;;;;;21.17;11.73;;;7.60;99.90;;;;;;4160779;28;20033;-60
2024/03/10 08:07:03;;;;;;;20.80;11.63;;;7.80;99.90;;;;;;4158548;28;20045;-57
2024/03/10 08:09:05;;;;;;;19.37;11.37;;;8.00;99.90;;;;;;4160286;28;20045;-57
2024/03/10 08:11:06;;;;;;;19.37;11.27;;;8.00;99.90;;;;;;4158229;28;20143;-58
2024/03/10 08:13:07;;;;;;;19.27;11.67;;;8.10;99.90;;;;;;4175635;28;20083;-53
2024/03/10 08:15:11;;;;;;;19.47;11.50;;;8.20;99.90;;;;;;4159581;28;20041;-57
2024/03/10 08:17:12;;;;;;;20.53;11.17;;;8.10;99.90;;;;;;4160519;28;20888;-60
2024/03/10 08:19:13;;;;;;;19.67;11.20;;;8.00;99.90;;;;;;4158974;28;20104;-59
2024/03/10 08:21:15;;;;;;;16.33;10.93;;;7.80;99.90;;;;;;4160997;28;20136;-58
2024/03/10 08:23:17;;;;;;;19.63;11.17;;;7.90;99.90;;;;;;4159680;28;20033;-56
2024/03/10 08:25:18;;;;;;;20.23;11.53;;;7.90;99.90;;;;;;4160037;28;20049;-56
2024/03/10 08:27:19;;;;;;;20.37;11.63;;;7.80;99.90;;;;;;4159112;28;20064;-55
2024/03/10 08:29:21;;;;;;;19.00;11.20;;;7.90;99.90;;;;;;4160455;28;20072;-59
2024/03/10 08:31:22;;;;;;;19.80;10.50;;;8.10;99.90;;;;;;4159411;28;20026;-57
2024/03/10 08:33:23;;;;;;;17.10;10.20;;;8.30;99.90;;;;;;4159492;28;20096;-60
2024/03/10 08:35:25;;;;;;;19.90;10.40;;;8.40;99.90;;;;;;4160419;28;20095;-53
2024/03/10 08:37:28;;;;;;;18.17;9.80;;;8.50;99.90;;;;;;4159175;28;20053;-55
2024/03/10 08:39:30;;;;;;;16.10;10.07;;;8.50;99.90;;;;;;4160150;28;20053;-55
2024/03/10 08:41:31;;;;;;;17.10;10.13;;;8.70;99.90;;;;;;4158869;28;20437;-57
2024/03/10 08:43:33;;;;;;;16.97;9.10;;;8.70;99.90;;;;;;4160463;28;20498;-54
2024/03/10 08:45:34;;;;;;;16.60;9.63;;;8.80;99.90;;;;;;4159484;28;20033;-55
2024/03/10 08:47:39;;;;;;;15.90;9.93;;;8.90;99.90;;;;;;4160726;28;20491;-55
2024/03/10 08:49:40;;;;;;;15.60;9.73;;;9.00;99.90;;;;;;4159502;28;20045;-58
2024/03/10 08:51:41;;;;;;;18.97;10.63;;;9.00;99.90;;;;;;4160538;28;20099;-59
2024/03/10 08:53:42;;;;;;;20.83;10.63;;;9.00;99.90;;;;;;4159869;28;20033;-56
2024/03/10 08:55:45;;;;;;;18.03;10.73;;;9.20;99.90;;;;;;4163036;28;20088;-58
2024/03/10 08:57:47;;;;;;;16.70;9.63;;;9.30;99.90;;;;;;4162561;28;20095;-59
2024/03/10 08:59:49;;;;;;;18.57;10.70;;;9.40;99.90;;;;;;4162340;28;20080;-58
2024/03/10 09:01:51;;;;;;;17.93;10.90;;;9.40;99.90;;;;;;4162476;28;20151;-58
2024/03/10 09:03:55;;;;;;;19.43;12.27;;;9.40;99.90;;;;;;4162841;28;20583;-61
2024/03/10 09:05:56;;;;;;;23.50;12.87;;;9.50;99.90;;;;;;4162679;28;20026;-61
2024/03/10 09:07:57;;;;;;;23.20;12.63;;;9.60;99.90;;;;;;4161707;28;20068;-60
2024/03/10 09:09:58;;;;;;;18.50;9.83;;;9.70;99.90;;;;;;4162245;28;20049;-60
2024/03/10 09:12:00;;;;;;;16.77;9.13;;;9.80;99.90;;;;;;4161665;28;20077;-60
2024/03/10 09:14:03;;;;;;;19.37;10.67;;;9.70;99.90;;;;;;4163212;28;20029;-59
2024/03/10 09:16:06;;;;;;;19.10;11.60;;;9.60;99.90;;;;;;4161513;28;20045;-61
2024/03/10 09:18:07;;;;;;;17.47;9.73;;;9.80;99.90;;;;;;4162360;28;20571;-59
2024/03/10 09:20:11;;;;;;;16.83;9.07;;;9.90;99.90;;;;;;4161813;28;20037;-58
2024/03/10 09:22:12;;;;;;;15.93;9.73;;;9.90;99.90;;;;;;4145538;28;20088;-59
2024/03/10 09:24:14;;;;;;;18.57;10.47;;;10.10;99.90;;;;;;4161421;28;20080;-60
2024/03/10 09:26:16;;;;;;;16.17;9.37;;;10.00;99.90;;;;;;4162726;28;20083;-56
2024/03/10 09:28:17;;;;;;;16.73;9.53;;;10.00;99.90;;;;;;4161456;28;20103;-56
2024/03/10 09:30:23;;;;;;;17.43;9.73;;;10.00;99.90;;;;;;4162716;28;20078;-58
2024/03/10 09:32:26;;;;;;;15.90;9.03;;;10.10;99.90;;;;;;4161747;28;20075;-60
2024/03/10 09:34:28;;;;;;;12.53;8.13;;;10.20;99.90;;;;;;4162623;28;20025;-62
2024/03/10 09:36:30;;;;;;;15.83;9.20;;;10.30;99.90;;;;;;4161551;28;20127;-59
2024/03/10 09:38:33;;;;;;;13.30;8.27;;;10.40;99.90;;;;;;4161176;28;20046;-56
2024/03/10 09:40:34;;;;;;;17.13;9.80;;;10.30;99.90;;;;;;4161151;28;20038;-55
2024/03/10 09:42:36;;;;;;;14.13;10.10;;;10.30;99.90;;;;;;4161359;28;20041;-58
2024/03/10 09:44:38;;;;;;;14.70;9.00;;;10.40;99.90;;;;;;4162116;28;20103;-58
2024/03/10 09:46:43;;;;;;;13.03;7.97;;;10.30;99.90;;;;;;4160804;28;20045;-60
2024/03/10 09:48:45;;;;;;;14.03;9.23;;;10.20;99.90;;;;;;4161785;28;20042;-59
2024/03/10 09:50:49;;;;;;;12.90;8.93;;;10.30;99.90;;;;;;4161451;28;20025;-57
2024/03/10 09:52:54;;;;;;;16.87;9.20;;;10.40;99.90;;;;;;4161838;28;20091;-61
2024/03/10 09:54:57;;;;;;;12.87;7.77;;;10.60;99.90;;;;;;4160133;28;20462;-60
2024/03/10 09:56:59;;;;;;;13.67;7.60;;;10.60;99.90;;;;;;4160940;28;20119;-62
2024/03/10 09:59:06;;;;;;;11.10;7.43;;;10.60;99.90;;;;;;4161646;28;20029;-59
2024/03/10 10:01:11;;;;;;;13.27;7.80;;;10.70;99.90;;;;;;4161414;28;20033;-60
2024/03/10 10:03:14;;;;;;;11.80;7.33;;;10.70;99.90;;;;;;4160757;28;20041;-59
2024/03/10 10:05:29;;;;;;;11.87;7.47;;;10.70;99.90;;;;;;4160624;28;20092;-61
2024/03/10 10:07:31;;;;;;;11.67;7.47;;;10.80;99.90;;;;;;4160643;28;20085;-58
2024/03/10 10:09:32;;;;;;;12.40;6.83;;;10.80;99.90;;;;;;4162005;28;20461;-58
2024/03/10 10:11:34;;;;;;;14.30;8.20;;;10.70;99.90;;;;;;4160634;28;20095;-62
2024/03/10 10:13:35;;;;;;;11.47;7.77;;;10.60;99.90;;;;;;4162277;28;20029;-62
2024/03/10 10:15:37;;;;;;;12.33;7.50;;;10.50;99.90;;;;;;4161111;28;20052;-60
2024/03/10 10:17:39;;;;;;;15.50;8.17;;;10.40;99.90;;;;;;4161292;28;20075;-61
2024/03/10 10:19:41;;;;;;;14.60;8.40;;;10.40;99.90;;;;;;4160558;28;20081;-58
2024/03/10 10:21:43;;;;;;;11.50;7.07;;;10.30;99.90;;;;;;4161437;28;20083;-58
2024/03/10 10:23:48;;;;;;;17.97;7.53;;;10.30;99.90;;;;;;4161658;28;20033;-61
2024/03/10 10:26:09;;;;;;;11.60;7.70;;;10.40;99.90;;;;;;4160932;28;20076;-64
2024/03/10 10:28:14;;;;;;;11.33;7.27;;;10.40;99.90;;;;;;4160758;28;20057;-62
2024/03/10 10:30:22;;;;;;;9.50;6.30;;;10.30;99.90;;;;;;4160880;28;20049;-59
2024/03/10 10:32:24;;;;;;;13.70;6.73;;;10.40;99.90;;;;;;4160619;28;20268;-58
2024/03/10 10:34:27;;;;;;;10.13;6.83;;;10.30;99.90;;;;;;4160369;28;20045;-61
2024/03/10 10:36:28;;;;;;;9.53;5.97;;;10.40;99.90;;;;;;4160975;28;20107;-57
2024/03/10 10:38:37;;;;;;;11.17;7.10;;;10.40;99.90;;;;;;4160395;28;20506;-61
2024/03/10 10:40:51;;;;;;;9.03;6.23;;;10.50;99.90;;;;;;4161495;28;20030;-57
2024/03/10 10:42:53;;;;;;;13.00;6.57;;;10.50;99.80;;;;;;4160435;28;20030;-57
2024/03/10 10:44:54;;;;;;;11.30;6.67;;;10.50;99.90;;;;;;4161686;28;20453;-58
2024/03/10 10:46:58;;;;;;;11.73;7.20;;;10.70;99.90;;;;;;4159756;28;20029;-59
2024/03/10 10:49:04;;;;;;;11.33;6.80;;;10.80;99.90;;;;;;4160621;28;20122;-62
2024/03/10 10:51:09;;;;;;;11.30;6.60;;;10.90;99.50;;;;;;4160310;28;20026;-57
2024/03/10 10:53:11;;;;;;;10.90;7.07;;;10.90;99.60;;;;;;4161641;28;20470;-58